sensor_id;sensor_type;location;lat;lon;timestamp;P1;durP1;ratioP1;P2;durP2;ratioP2
74459;SDS011;62902;48.854;9.292;2023-05-27T00:01:08;146.90;;;42.08;;
74459;SDS011;62902;48.854;9.292;2023-05-27T00:03:34;147.02;;;42.15;;
74459;SDS011;62902;48.854;9.292;2023-05-27T00:06:01;147.43;;;43.03;;
74459;SDS011;62902;48.854;9.292;2023-05-27T00:08:28;147.38;;;42.17;;
74459;SDS011;62902;48.854;9.292;2023-05-27T00:10:55;147.88;;;43.40;;
74459;SDS011;62902;48.854;9.292;2023-05-27T00:13:21;148.00;;;43.15;;
74459;SDS011;62902;48.854;9.292;2023-05-27T00:15:48;147.07;;;42.22;;
74459;SDS011;62902;48.854;9.292;2023-05-27T00:18:15;147.45;;;42.40;;
74459;SDS011;62902;48.854;9.292;2023-05-27T00:20:41;146.93;;;42.17;;
74459;SDS011;62902;48.854;9.292;2023-05-27T00:23:08;147.32;;;42.53;;
74459;SDS011;62902;48.854;9.292;2023-05-27T00:25:35;147.20;;;42.03;;
74459;SDS011;62902;48.854;9.292;2023-05-27T00:28:02;147.73;;;43.35;;
74459;SDS011;62902;48.854;9.292;2023-05-27T00:30:29;147.25;;;41.75;;
74459;SDS011;62902;48.854;9.292;2023-05-27T00:32:56;147.52;;;42.85;;
74459;SDS011;62902;48.854;9.292;2023-05-27T00:35:23;147.57;;;42.13;;
74459;SDS011;62902;48.854;9.292;2023-05-27T00:37:49;147.95;;;42.05;;
74459;SDS011;62902;48.854;9.292;2023-05-27T00:40:18;147.48;;;42.22;;
74459;SDS011;62902;48.854;9.292;2023-05-27T00:42:46;146.63;;;42.53;;
74459;SDS011;62902;48.854;9.292;2023-05-27T00:45:13;143.80;;;42.10;;
74459;SDS011;62902;48.854;9.292;2023-05-27T00:47:40;142.80;;;42.30;;
74459;SDS011;62902;48.854;9.292;2023-05-27T00:50:07;143.40;;;42.75;;
74459;SDS011;62902;48.854;9.292;2023-05-27T00:52:36;142.52;;;42.47;;
74459;SDS011;62902;48.854;9.292;2023-05-27T00:55:03;141.13;;;43.10;;
74459;SDS011;62902;48.854;9.292;2023-05-27T00:57:30;141.82;;;42.42;;
74459;SDS011;62902;48.854;9.292;2023-05-27T00:59:57;142.25;;;42.80;;
74459;SDS011;62902;48.854;9.292;2023-05-27T01:02:23;145.25;;;42.15;;
74459;SDS011;62902;48.854;9.292;2023-05-27T01:04:50;144.43;;;42.20;;
74459;SDS011;62902;48.854;9.292;2023-05-27T01:07:21;145.73;;;42.58;;
74459;SDS011;62902;48.854;9.292;2023-05-27T01:09:54;143.65;;;42.20;;
74459;SDS011;62902;48.854;9.292;2023-05-27T01:14:54;143.38;;;42.15;;
74459;SDS011;62902;48.854;9.292;2023-05-27T01:17:24;143.15;;;41.80;;
74459;SDS011;62902;48.854;9.292;2023-05-27T01:19:53;143.70;;;41.90;;
74459;SDS011;62902;48.854;9.292;2023-05-27T01:24:51;142.63;;;41.60;;
74459;SDS011;62902;48.854;9.292;2023-05-27T01:27:18;143.35;;;42.08;;
74459;SDS011;62902;48.854;9.292;2023-05-27T01:29:45;142.13;;;41.97;;
74459;SDS011;62902;48.854;9.292;2023-05-27T01:37:20;140.07;;;41.60;;
74459;SDS011;62902;48.854;9.292;2023-05-27T01:39:49;141.27;;;42.03;;
74459;SDS011;62902;48.854;9.292;2023-05-27T01:42:16;138.80;;;41.72;;
74459;SDS011;62902;48.854;9.292;2023-05-27T01:44:43;140.73;;;41.65;;
74459;SDS011;62902;48.854;9.292;2023-05-27T01:47:10;143.82;;;41.92;;
74459;SDS011;62902;48.854;9.292;2023-05-27T01:49:37;145.52;;;41.88;;
74459;SDS011;62902;48.854;9.292;2023-05-27T01:52:04;145.85;;;42.63;;
74459;SDS011;62902;48.854;9.292;2023-05-27T01:54:31;145.63;;;41.65;;
74459;SDS011;62902;48.854;9.292;2023-05-27T01:56:58;145.32;;;42.17;;
74459;SDS011;62902;48.854;9.292;2023-05-27T01:59:24;143.93;;;41.83;;
74459;SDS011;62902;48.854;9.292;2023-05-27T02:01:51;143.63;;;41.97;;
74459;SDS011;62902;48.854;9.292;2023-05-27T02:06:45;140.60;;;41.58;;
74459;SDS011;62902;48.854;9.292;2023-05-27T02:09:15;142.05;;;41.83;;
74459;SDS011;62902;48.854;9.292;2023-05-27T02:11:41;142.32;;;41.63;;
74459;SDS011;62902;48.854;9.292;2023-05-27T02:14:08;143.20;;;42.33;;
74459;SDS011;62902;48.854;9.292;2023-05-27T02:16:34;143.93;;;41.72;;
74459;SDS011;62902;48.854;9.292;2023-05-27T02:19:03;144.45;;;42.33;;
74459;SDS011;62902;48.854;9.292;2023-05-27T02:23:57;144.05;;;41.60;;
74459;SDS011;62902;48.854;9.292;2023-05-27T02:26:24;144.30;;;41.67;;
74459;SDS011;62902;48.854;9.292;2023-05-27T02:28:51;143.27;;;41.40;;
74459;SDS011;62902;48.854;9.292;2023-05-27T02:31:17;144.48;;;41.38;;
74459;SDS011;62902;48.854;9.292;2023-05-27T02:33:44;143.38;;;41.55;;
74459;SDS011;62902;48.854;9.292;2023-05-27T02:36:12;143.95;;;42.08;;
74459;SDS011;62902;48.854;9.292;2023-05-27T02:38:39;142.15;;;41.25;;
74459;SDS011;62902;48.854;9.292;2023-05-27T02:41:05;141.15;;;41.60;;
74459;SDS011;62902;48.854;9.292;2023-05-27T02:43:33;142.40;;;41.90;;
74459;SDS011;62902;48.854;9.292;2023-05-27T02:46:00;139.23;;;41.35;;
74459;SDS011;62902;48.854;9.292;2023-05-27T02:48:26;137.65;;;40.75;;
74459;SDS011;62902;48.854;9.292;2023-05-27T02:50:53;134.60;;;40.47;;
74459;SDS011;62902;48.854;9.292;2023-05-27T02:53:19;129.77;;;41.05;;
74459;SDS011;62902;48.854;9.292;2023-05-27T02:55:46;132.10;;;41.10;;
74459;SDS011;62902;48.854;9.292;2023-05-27T02:58:13;137.25;;;41.83;;
74459;SDS011;62902;48.854;9.292;2023-05-27T03:00:39;141.15;;;41.70;;
74459;SDS011;62902;48.854;9.292;2023-05-27T03:03:07;140.63;;;42.03;;
74459;SDS011;62902;48.854;9.292;2023-05-27T03:05:34;141.27;;;41.30;;
74459;SDS011;62902;48.854;9.292;2023-05-27T03:08:01;140.77;;;41.92;;
74459;SDS011;62902;48.854;9.292;2023-05-27T03:10:29;141.40;;;41.58;;
74459;SDS011;62902;48.854;9.292;2023-05-27T03:15:23;141.25;;;41.58;;
74459;SDS011;62902;48.854;9.292;2023-05-27T03:17:50;141.57;;;41.53;;
74459;SDS011;62902;48.854;9.292;2023-05-27T03:20:16;141.55;;;42.45;;
74459;SDS011;62902;48.854;9.292;2023-05-27T03:22:45;140.68;;;41.22;;
74459;SDS011;62902;48.854;9.292;2023-05-27T03:25:12;142.18;;;42.38;;
74459;SDS011;62902;48.854;9.292;2023-05-27T03:27:40;141.30;;;41.42;;
74459;SDS011;62902;48.854;9.292;2023-05-27T03:30:11;141.68;;;42.00;;
74459;SDS011;62902;48.854;9.292;2023-05-27T03:32:43;141.48;;;40.88;;
74459;SDS011;62902;48.854;9.292;2023-05-27T03:35:10;142.00;;;42.13;;
74459;SDS011;62902;48.854;9.292;2023-05-27T03:37:36;142.15;;;41.65;;
74459;SDS011;62902;48.854;9.292;2023-05-27T03:40:06;136.68;;;41.00;;
74459;SDS011;62902;48.854;9.292;2023-05-27T03:42:33;135.38;;;40.85;;
74459;SDS011;62902;48.854;9.292;2023-05-27T03:45:00;137.02;;;40.63;;
74459;SDS011;62902;48.854;9.292;2023-05-27T03:47:27;139.00;;;41.20;;
74459;SDS011;62902;48.854;9.292;2023-05-27T03:49:54;136.23;;;40.63;;
74459;SDS011;62902;48.854;9.292;2023-05-27T03:52:20;137.38;;;40.38;;
74459;SDS011;62902;48.854;9.292;2023-05-27T03:54:47;143.32;;;41.00;;
74459;SDS011;62902;48.854;9.292;2023-05-27T03:57:13;143.63;;;42.22;;
74459;SDS011;62902;48.854;9.292;2023-05-27T03:59:41;141.38;;;40.88;;
74459;SDS011;62902;48.854;9.292;2023-05-27T04:02:07;139.02;;;41.35;;
74459;SDS011;62902;48.854;9.292;2023-05-27T04:04:34;131.32;;;39.33;;
74459;SDS011;62902;48.854;9.292;2023-05-27T04:07:01;129.77;;;39.83;;
74459;SDS011;62902;48.854;9.292;2023-05-27T04:09:27;137.20;;;40.38;;
74459;SDS011;62902;48.854;9.292;2023-05-27T04:11:54;141.05;;;40.83;;
74459;SDS011;62902;48.854;9.292;2023-05-27T04:14:22;146.70;;;41.50;;
74459;SDS011;62902;48.854;9.292;2023-05-27T04:16:48;146.50;;;40.67;;
74459;SDS011;62902;48.854;9.292;2023-05-27T04:19:17;146.57;;;41.50;;
74459;SDS011;62902;48.854;9.292;2023-05-27T04:21:45;146.55;;;40.92;;
74459;SDS011;62902;48.854;9.292;2023-05-27T04:24:12;145.90;;;41.25;;
74459;SDS011;62902;48.854;9.292;2023-05-27T04:26:39;144.60;;;40.42;;
74459;SDS011;62902;48.854;9.292;2023-05-27T04:29:07;143.73;;;40.90;;
74459;SDS011;62902;48.854;9.292;2023-05-27T04:31:38;144.88;;;40.78;;
74459;SDS011;62902;48.854;9.292;2023-05-27T04:34:11;140.48;;;40.78;;
74459;SDS011;62902;48.854;9.292;2023-05-27T04:36:39;148.15;;;40.60;;
74459;SDS011;62902;48.854;9.292;2023-05-27T04:39:09;151.18;;;41.72;;
74459;SDS011;62902;48.854;9.292;2023-05-27T04:41:40;150.88;;;40.75;;
74459;SDS011;62902;48.854;9.292;2023-05-27T04:44:10;150.93;;;41.70;;
74459;SDS011;62902;48.854;9.292;2023-05-27T04:46:41;150.70;;;40.75;;
74459;SDS011;62902;48.854;9.292;2023-05-27T04:49:10;151.18;;;41.70;;
74459;SDS011;62902;48.854;9.292;2023-05-27T04:51:37;150.30;;;41.13;;
74459;SDS011;62902;48.854;9.292;2023-05-27T04:54:04;150.52;;;40.72;;
74459;SDS011;62902;48.854;9.292;2023-05-27T04:56:33;150.30;;;40.83;;
74459;SDS011;62902;48.854;9.292;2023-05-27T04:59:00;150.95;;;40.85;;
74459;SDS011;62902;48.854;9.292;2023-05-27T05:01:31;150.65;;;40.90;;
74459;SDS011;62902;48.854;9.292;2023-05-27T05:04:21;150.60;;;41.00;;
74459;SDS011;62902;48.854;9.292;2023-05-27T05:07:00;150.88;;;40.63;;
74459;SDS011;62902;48.854;9.292;2023-05-27T05:09:28;150.55;;;40.90;;
74459;SDS011;62902;48.854;9.292;2023-05-27T05:11:58;151.27;;;41.58;;
74459;SDS011;62902;48.854;9.292;2023-05-27T05:14:25;151.32;;;41.25;;
74459;SDS011;62902;48.854;9.292;2023-05-27T05:16:51;150.48;;;40.60;;
74459;SDS011;62902;48.854;9.292;2023-05-27T05:19:18;151.13;;;41.80;;
74459;SDS011;62902;48.854;9.292;2023-05-27T05:21:45;150.13;;;40.88;;
74459;SDS011;62902;48.854;9.292;2023-05-27T05:24:13;150.48;;;41.40;;
74459;SDS011;62902;48.854;9.292;2023-05-27T05:26:41;150.45;;;40.83;;
74459;SDS011;62902;48.854;9.292;2023-05-27T05:29:08;151.23;;;41.50;;
74459;SDS011;62902;48.854;9.292;2023-05-27T05:31:35;151.23;;;40.85;;
74459;SDS011;62902;48.854;9.292;2023-05-27T05:34:03;150.75;;;40.97;;
74459;SDS011;62902;48.854;9.292;2023-05-27T05:36:33;148.95;;;40.75;;
74459;SDS011;62902;48.854;9.292;2023-05-27T05:39:04;151.25;;;41.38;;
74459;SDS011;62902;48.854;9.292;2023-05-27T05:41:33;149.00;;;40.88;;
74459;SDS011;62902;48.854;9.292;2023-05-27T05:44:00;149.57;;;40.75;;
74459;SDS011;62902;48.854;9.292;2023-05-27T05:46:26;149.10;;;41.33;;
74459;SDS011;62902;48.854;9.292;2023-05-27T05:48:53;150.90;;;40.95;;
74459;SDS011;62902;48.854;9.292;2023-05-27T05:51:30;150.40;;;41.28;;
74459;SDS011;62902;48.854;9.292;2023-05-27T05:53:58;149.85;;;40.95;;
74459;SDS011;62902;48.854;9.292;2023-05-27T05:56:26;150.20;;;41.45;;
74459;SDS011;62902;48.854;9.292;2023-05-27T05:58:56;150.52;;;41.05;;
74459;SDS011;62902;48.854;9.292;2023-05-27T06:01:25;150.77;;;41.55;;
74459;SDS011;62902;48.854;9.292;2023-05-27T06:03:53;150.18;;;41.38;;
74459;SDS011;62902;48.854;9.292;2023-05-27T06:06:29;150.63;;;41.13;;
74459;SDS011;62902;48.854;9.292;2023-05-27T06:09:16;149.82;;;41.58;;
74459;SDS011;62902;48.854;9.292;2023-05-27T06:14:11;151.20;;;41.90;;
74459;SDS011;62902;48.854;9.292;2023-05-27T06:16:38;150.05;;;40.83;;
74459;SDS011;62902;48.854;9.292;2023-05-27T06:19:06;149.02;;;41.03;;
74459;SDS011;62902;48.854;9.292;2023-05-27T06:21:33;152.20;;;41.35;;
74459;SDS011;62902;48.854;9.292;2023-05-27T06:24:21;150.85;;;41.75;;
74459;SDS011;62902;48.854;9.292;2023-05-27T06:26:54;150.15;;;40.90;;
74459;SDS011;62902;48.854;9.292;2023-05-27T06:29:21;151.13;;;41.63;;
74459;SDS011;62902;48.854;9.292;2023-05-27T06:31:48;151.10;;;41.42;;
74459;SDS011;62902;48.854;9.292;2023-05-27T06:34:15;150.77;;;41.80;;
74459;SDS011;62902;48.854;9.292;2023-05-27T06:36:45;150.75;;;40.85;;
74459;SDS011;62902;48.854;9.292;2023-05-27T06:39:15;153.95;;;41.13;;
74459;SDS011;62902;48.854;9.292;2023-05-27T06:41:42;153.52;;;41.42;;
74459;SDS011;62902;48.854;9.292;2023-05-27T06:44:38;151.05;;;40.75;;
74459;SDS011;62902;48.854;9.292;2023-05-27T06:47:18;152.18;;;41.58;;
74459;SDS011;62902;48.854;9.292;2023-05-27T06:49:45;151.98;;;40.63;;
74459;SDS011;62902;48.854;9.292;2023-05-27T06:52:11;152.95;;;41.50;;
74459;SDS011;62902;48.854;9.292;2023-05-27T06:54:59;150.48;;;41.17;;
74459;SDS011;62902;48.854;9.292;2023-05-27T06:57:49;150.18;;;40.88;;
74459;SDS011;62902;48.854;9.292;2023-05-27T07:00:38;150.52;;;41.45;;
74459;SDS011;62902;48.854;9.292;2023-05-27T07:03:18;149.90;;;41.08;;
74459;SDS011;62902;48.854;9.292;2023-05-27T07:05:45;149.20;;;41.72;;
74459;SDS011;62902;48.854;9.292;2023-05-27T07:08:12;151.07;;;42.08;;
74459;SDS011;62902;48.854;9.292;2023-05-27T07:10:40;149.18;;;41.80;;
74459;SDS011;62902;48.854;9.292;2023-05-27T07:13:07;150.10;;;41.90;;
74459;SDS011;62902;48.854;9.292;2023-05-27T07:18:14;150.52;;;42.40;;
74459;SDS011;62902;48.854;9.292;2023-05-27T07:20:42;149.45;;;41.47;;
74459;SDS011;62902;48.854;9.292;2023-05-27T07:23:11;149.30;;;42.05;;
74459;SDS011;62902;48.854;9.292;2023-05-27T07:25:39;147.95;;;42.05;;
74459;SDS011;62902;48.854;9.292;2023-05-27T07:28:06;146.88;;;41.90;;
74459;SDS011;62902;48.854;9.292;2023-05-27T07:30:39;148.02;;;42.25;;
74459;SDS011;62902;48.854;9.292;2023-05-27T07:33:06;148.13;;;42.30;;
74459;SDS011;62902;48.854;9.292;2023-05-27T07:35:33;149.45;;;42.20;;
74459;SDS011;62902;48.854;9.292;2023-05-27T07:37:59;148.25;;;42.13;;
74459;SDS011;62902;48.854;9.292;2023-05-27T07:40:26;147.27;;;42.80;;
74459;SDS011;62902;48.854;9.292;2023-05-27T07:42:53;147.75;;;42.08;;
74459;SDS011;62902;48.854;9.292;2023-05-27T07:45:20;148.82;;;42.70;;
74459;SDS011;62902;48.854;9.292;2023-05-27T07:47:52;148.43;;;42.03;;
74459;SDS011;62902;48.854;9.292;2023-05-27T07:50:22;149.30;;;43.20;;
74459;SDS011;62902;48.854;9.292;2023-05-27T07:52:59;149.82;;;42.28;;
74459;SDS011;62902;48.854;9.292;2023-05-27T07:55:28;149.70;;;43.15;;
74459;SDS011;62902;48.854;9.292;2023-05-27T07:57:55;149.43;;;42.47;;
74459;SDS011;62902;48.854;9.292;2023-05-27T08:00:27;150.93;;;43.35;;
74459;SDS011;62902;48.854;9.292;2023-05-27T08:02:54;150.88;;;42.72;;
74459;SDS011;62902;48.854;9.292;2023-05-27T08:08:50;152.80;;;42.47;;
74459;SDS011;62902;48.854;9.292;2023-05-27T08:11:36;152.95;;;42.92;;
74459;SDS011;62902;48.854;9.292;2023-05-27T08:14:28;155.10;;;43.63;;
74459;SDS011;62902;48.854;9.292;2023-05-27T08:17:14;155.98;;;42.80;;
74459;SDS011;62902;48.854;9.292;2023-05-27T08:19:40;155.23;;;42.90;;
74459;SDS011;62902;48.854;9.292;2023-05-27T08:22:38;154.90;;;43.00;;
74459;SDS011;62902;48.854;9.292;2023-05-27T08:25:20;155.85;;;43.30;;
74459;SDS011;62902;48.854;9.292;2023-05-27T08:28:10;153.63;;;42.42;;
74459;SDS011;62902;48.854;9.292;2023-05-27T08:30:56;153.52;;;42.53;;
74459;SDS011;62902;48.854;9.292;2023-05-27T08:33:27;154.55;;;43.53;;
74459;SDS011;62902;48.854;9.292;2023-05-27T08:35:55;154.70;;;42.78;;
74459;SDS011;62902;48.854;9.292;2023-05-27T08:38:22;152.77;;;42.83;;
74459;SDS011;62902;48.854;9.292;2023-05-27T08:40:54;153.43;;;42.72;;
74459;SDS011;62902;48.854;9.292;2023-05-27T08:43:21;153.60;;;43.55;;
74459;SDS011;62902;48.854;9.292;2023-05-27T08:45:48;153.60;;;43.22;;
74459;SDS011;62902;48.854;9.292;2023-05-27T08:48:17;153.07;;;43.33;;
74459;SDS011;62902;48.854;9.292;2023-05-27T08:50:45;152.60;;;43.72;;
74459;SDS011;62902;48.854;9.292;2023-05-27T08:53:12;152.20;;;43.40;;
74459;SDS011;62902;48.854;9.292;2023-05-27T08:55:41;153.77;;;43.75;;
74459;SDS011;62902;48.854;9.292;2023-05-27T08:58:10;153.60;;;42.88;;
74459;SDS011;62902;48.854;9.292;2023-05-27T09:00:41;153.63;;;43.58;;
74459;SDS011;62902;48.854;9.292;2023-05-27T09:03:15;153.55;;;43.38;;
74459;SDS011;62902;48.854;9.292;2023-05-27T09:05:43;153.88;;;43.28;;
74459;SDS011;62902;48.854;9.292;2023-05-27T09:08:10;154.10;;;42.75;;
74459;SDS011;62902;48.854;9.292;2023-05-27T09:10:37;153.55;;;43.42;;
74459;SDS011;62902;48.854;9.292;2023-05-27T09:13:04;153.25;;;43.13;;
74459;SDS011;62902;48.854;9.292;2023-05-27T09:15:31;153.40;;;44.15;;
74459;SDS011;62902;48.854;9.292;2023-05-27T09:17:59;149.32;;;44.03;;
74459;SDS011;62902;48.854;9.292;2023-05-27T09:20:26;146.20;;;44.80;;
74459;SDS011;62902;48.854;9.292;2023-05-27T09:22:58;144.57;;;44.08;;
74459;SDS011;62902;48.854;9.292;2023-05-27T09:25:25;138.77;;;44.75;;
74459;SDS011;62902;48.854;9.292;2023-05-27T09:27:52;104.27;;;42.93;;
74459;SDS011;62902;48.854;9.292;2023-05-27T09:30:20;102.20;;;42.50;;
74459;SDS011;62902;48.854;9.292;2023-05-27T09:32:47;97.50;;;40.95;;
74459;SDS011;62902;48.854;9.292;2023-05-27T09:35:15;101.60;;;41.67;;
74459;SDS011;62902;48.854;9.292;2023-05-27T09:37:43;102.25;;;42.00;;
74459;SDS011;62902;48.854;9.292;2023-05-27T09:40:12;102.35;;;41.85;;
74459;SDS011;62902;48.854;9.292;2023-05-27T09:42:44;93.63;;;40.07;;
74459;SDS011;62902;48.854;9.292;2023-05-27T09:45:18;110.65;;;45.40;;
74459;SDS011;62902;48.854;9.292;2023-05-27T09:50:17;111.43;;;45.63;;
74459;SDS011;62902;48.854;9.292;2023-05-27T09:52:45;109.95;;;45.70;;
74459;SDS011;62902;48.854;9.292;2023-05-27T09:55:30;101.00;;;42.60;;
74459;SDS011;62902;48.854;9.292;2023-05-27T09:58:00;97.10;;;44.90;;
74459;SDS011;62902;48.854;9.292;2023-05-27T10:00:27;98.25;;;42.80;;
74459;SDS011;62902;48.854;9.292;2023-05-27T10:02:55;94.30;;;45.00;;
74459;SDS011;62902;48.854;9.292;2023-05-27T10:05:25;113.17;;;47.60;;
74459;SDS011;62902;48.854;9.292;2023-05-27T10:07:53;104.93;;;46.03;;
74459;SDS011;62902;48.854;9.292;2023-05-27T10:10:37;109.30;;;46.25;;
74459;SDS011;62902;48.854;9.292;2023-05-27T10:13:04;108.90;;;46.20;;
74459;SDS011;62902;48.854;9.292;2023-05-27T10:15:32;109.13;;;46.37;;
74459;SDS011;62902;48.854;9.292;2023-05-27T10:20:34;114.15;;;47.70;;
74459;SDS011;62902;48.854;9.292;2023-05-27T10:25:44;114.80;;;47.20;;
74459;SDS011;62902;48.854;9.292;2023-05-27T10:28:22;115.35;;;49.40;;
74459;SDS011;62902;48.854;9.292;2023-05-27T10:31:08;113.80;;;48.60;;
74459;SDS011;62902;48.854;9.292;2023-05-27T10:33:39;112.60;;;48.35;;
74459;SDS011;62902;48.854;9.292;2023-05-27T10:36:09;108.75;;;47.00;;
74459;SDS011;62902;48.854;9.292;2023-05-27T10:38:37;111.03;;;46.97;;
74459;SDS011;62902;48.854;9.292;2023-05-27T10:41:05;114.63;;;46.95;;
74459;SDS011;62902;48.854;9.292;2023-05-27T10:43:33;116.15;;;47.20;;
74459;SDS011;62902;48.854;9.292;2023-05-27T10:46:03;114.85;;;46.92;;
74459;SDS011;62902;48.854;9.292;2023-05-27T10:48:33;110.80;;;46.05;;
74459;SDS011;62902;48.854;9.292;2023-05-27T10:51:00;114.63;;;46.95;;
74459;SDS011;62902;48.854;9.292;2023-05-27T10:53:27;111.23;;;46.13;;
74459;SDS011;62902;48.854;9.292;2023-05-27T10:58:23;111.30;;;46.37;;
74459;SDS011;62902;48.854;9.292;2023-05-27T11:00:50;114.17;;;46.67;;
74459;SDS011;62902;48.854;9.292;2023-05-27T11:03:25;111.25;;;46.70;;
74459;SDS011;62902;48.854;9.292;2023-05-27T11:06:00;111.40;;;46.15;;
74459;SDS011;62902;48.854;9.292;2023-05-27T11:08:27;111.55;;;46.10;;
74459;SDS011;62902;48.854;9.292;2023-05-27T11:11:02;111.45;;;46.63;;
74459;SDS011;62902;48.854;9.292;2023-05-27T11:13:45;110.75;;;46.47;;
74459;SDS011;62902;48.854;9.292;2023-05-27T11:16:14;112.45;;;46.70;;
74459;SDS011;62902;48.854;9.292;2023-05-27T11:18:43;113.75;;;47.45;;
74459;SDS011;62902;48.854;9.292;2023-05-27T11:21:14;110.68;;;45.78;;
74459;SDS011;62902;48.854;9.292;2023-05-27T11:23:48;114.00;;;46.25;;
74459;SDS011;62902;48.854;9.292;2023-05-27T11:26:18;113.90;;;47.43;;
74459;SDS011;62902;48.854;9.292;2023-05-27T11:28:49;109.38;;;46.42;;
74459;SDS011;62902;48.854;9.292;2023-05-27T11:31:17;101.63;;;42.95;;
74459;SDS011;62902;48.854;9.292;2023-05-27T11:33:47;109.80;;;47.17;;
74459;SDS011;62902;48.854;9.292;2023-05-27T11:36:16;110.70;;;47.50;;
74459;SDS011;62902;48.854;9.292;2023-05-27T11:41:17;109.03;;;46.40;;
74459;SDS011;62902;48.854;9.292;2023-05-27T11:43:52;105.23;;;45.23;;
74459;SDS011;62902;48.854;9.292;2023-05-27T11:46:23;104.43;;;44.75;;
74459;SDS011;62902;48.854;9.292;2023-05-27T11:48:51;110.67;;;47.07;;
74459;SDS011;62902;48.854;9.292;2023-05-27T11:51:28;109.60;;;46.35;;
74459;SDS011;62902;48.854;9.292;2023-05-27T11:53:55;111.33;;;46.97;;
74459;SDS011;62902;48.854;9.292;2023-05-27T11:56:23;110.57;;;46.67;;
74459;SDS011;62902;48.854;9.292;2023-05-27T11:58:51;109.60;;;45.88;;
74459;SDS011;62902;48.854;9.292;2023-05-27T12:01:17;115.00;;;48.50;;
74459;SDS011;62902;48.854;9.292;2023-05-27T12:03:45;115.80;;;48.70;;
74459;SDS011;62902;48.854;9.292;2023-05-27T12:06:12;110.97;;;46.60;;
74459;SDS011;62902;48.854;9.292;2023-05-27T12:08:38;111.53;;;46.83;;
74459;SDS011;62902;48.854;9.292;2023-05-27T12:11:05;110.60;;;47.25;;
74459;SDS011;62902;48.854;9.292;2023-05-27T12:13:31;108.60;;;47.30;;
74459;SDS011;62902;48.854;9.292;2023-05-27T12:15:58;107.05;;;46.35;;
74459;SDS011;62902;48.854;9.292;2023-05-27T12:18:25;101.55;;;43.80;;
74459;SDS011;62902;48.854;9.292;2023-05-27T12:20:52;105.90;;;47.90;;
74459;SDS011;62902;48.854;9.292;2023-05-27T12:23:19;107.10;;;46.13;;
74459;SDS011;62902;48.854;9.292;2023-05-27T12:25:48;107.70;;;46.20;;
74459;SDS011;62902;48.854;9.292;2023-05-27T12:28:18;118.43;;;49.17;;
74459;SDS011;62902;48.854;9.292;2023-05-27T12:30:45;113.00;;;46.70;;
74459;SDS011;62902;48.854;9.292;2023-05-27T12:33:12;107.90;;;45.60;;
74459;SDS011;62902;48.854;9.292;2023-05-27T12:35:41;107.90;;;46.10;;
74459;SDS011;62902;48.854;9.292;2023-05-27T12:38:07;105.78;;;45.22;;
74459;SDS011;62902;48.854;9.292;2023-05-27T12:40:34;109.70;;;47.55;;
74459;SDS011;62902;48.854;9.292;2023-05-27T12:43:01;107.25;;;45.80;;
74459;SDS011;62902;48.854;9.292;2023-05-27T12:45:30;108.30;;;46.20;;
74459;SDS011;62902;48.854;9.292;2023-05-27T12:47:57;108.73;;;46.43;;
74459;SDS011;62902;48.854;9.292;2023-05-27T12:50:26;113.53;;;46.97;;
74459;SDS011;62902;48.854;9.292;2023-05-27T12:52:52;113.73;;;47.00;;
74459;SDS011;62902;48.854;9.292;2023-05-27T12:55:20;113.95;;;46.70;;
74459;SDS011;62902;48.854;9.292;2023-05-27T12:57:51;114.50;;;47.40;;
74459;SDS011;62902;48.854;9.292;2023-05-27T13:00:19;110.10;;;46.53;;
74459;SDS011;62902;48.854;9.292;2023-05-27T13:02:46;109.73;;;46.50;;
74459;SDS011;62902;48.854;9.292;2023-05-27T13:07:40;109.97;;;46.63;;
74459;SDS011;62902;48.854;9.292;2023-05-27T13:12:38;108.20;;;46.13;;
74459;SDS011;62902;48.854;9.292;2023-05-27T13:15:04;114.70;;;46.83;;
74459;SDS011;62902;48.854;9.292;2023-05-27T13:17:34;115.38;;;47.40;;
74459;SDS011;62902;48.854;9.292;2023-05-27T13:20:00;116.40;;;47.30;;
74459;SDS011;62902;48.854;9.292;2023-05-27T13:22:28;115.72;;;47.40;;
74459;SDS011;62902;48.854;9.292;2023-05-27T13:24:55;113.20;;;47.17;;
74459;SDS011;62902;48.854;9.292;2023-05-27T13:27:22;110.03;;;46.25;;
74459;SDS011;62902;48.854;9.292;2023-05-27T13:29:49;110.87;;;46.70;;
74459;SDS011;62902;48.854;9.292;2023-05-27T13:32:17;109.60;;;46.23;;
74459;SDS011;62902;48.854;9.292;2023-05-27T13:34:44;107.28;;;46.13;;
74459;SDS011;62902;48.854;9.292;2023-05-27T13:37:11;104.57;;;45.20;;
74459;SDS011;62902;48.854;9.292;2023-05-27T13:39:38;110.15;;;46.90;;
74459;SDS011;62902;48.854;9.292;2023-05-27T13:42:09;113.20;;;46.83;;
74459;SDS011;62902;48.854;9.292;2023-05-27T13:44:36;109.93;;;46.28;;
74459;SDS011;62902;48.854;9.292;2023-05-27T13:47:03;109.93;;;46.47;;
74459;SDS011;62902;48.854;9.292;2023-05-27T13:49:30;112.15;;;46.55;;
74459;SDS011;62902;48.854;9.292;2023-05-27T13:51:56;110.57;;;46.72;;
74459;SDS011;62902;48.854;9.292;2023-05-27T13:54:23;112.90;;;46.90;;
74459;SDS011;62902;48.854;9.292;2023-05-27T13:56:50;115.13;;;47.38;;
74459;SDS011;62902;48.854;9.292;2023-05-27T13:59:16;114.13;;;46.75;;
74459;SDS011;62902;48.854;9.292;2023-05-27T14:01:43;112.50;;;46.80;;
74459;SDS011;62902;48.854;9.292;2023-05-27T14:04:11;110.20;;;46.58;;
74459;SDS011;62902;48.854;9.292;2023-05-27T14:06:43;109.70;;;46.40;;
74459;SDS011;62902;48.854;9.292;2023-05-27T14:09:10;112.05;;;47.35;;
74459;SDS011;62902;48.854;9.292;2023-05-27T14:11:37;113.33;;;48.40;;
74459;SDS011;62902;48.854;9.292;2023-05-27T14:14:04;111.83;;;47.53;;
74459;SDS011;62902;48.854;9.292;2023-05-27T14:16:31;108.70;;;46.90;;
74459;SDS011;62902;48.854;9.292;2023-05-27T14:18:58;104.70;;;45.15;;
74459;SDS011;62902;48.854;9.292;2023-05-27T14:21:27;105.27;;;45.53;;
74459;SDS011;62902;48.854;9.292;2023-05-27T14:23:54;117.18;;;49.22;;
74459;SDS011;62902;48.854;9.292;2023-05-27T14:26:23;111.40;;;48.25;;
74459;SDS011;62902;48.854;9.292;2023-05-27T14:28:50;109.90;;;46.67;;
74459;SDS011;62902;48.854;9.292;2023-05-27T14:31:17;99.57;;;43.28;;
74459;SDS011;62902;48.854;9.292;2023-05-27T14:33:45;88.90;;;47.70;;
74459;SDS011;62902;48.854;9.292;2023-05-27T14:36:11;96.05;;;43.45;;
74459;SDS011;62902;48.854;9.292;2023-05-27T14:38:39;111.80;;;47.55;;
74459;SDS011;62902;48.854;9.292;2023-05-27T14:41:05;106.78;;;45.53;;
74459;SDS011;62902;48.854;9.292;2023-05-27T14:43:32;117.40;;;48.80;;
74459;SDS011;62902;48.854;9.292;2023-05-27T14:45:58;103.40;;;44.13;;
74459;SDS011;62902;48.854;9.292;2023-05-27T14:48:25;107.07;;;46.33;;
74459;SDS011;62902;48.854;9.292;2023-05-27T14:50:52;106.43;;;45.80;;
74459;SDS011;62902;48.854;9.292;2023-05-27T14:53:19;108.93;;;47.30;;
74459;SDS011;62902;48.854;9.292;2023-05-27T14:55:46;113.38;;;48.90;;
74459;SDS011;62902;48.854;9.292;2023-05-27T14:58:14;117.50;;;49.10;;
74459;SDS011;62902;48.854;9.292;2023-05-27T15:00:45;111.30;;;46.95;;
74459;SDS011;62902;48.854;9.292;2023-05-27T15:03:12;111.80;;;47.00;;